Time;durP1;ratioP1;P1;durP2;ratioP2;P2;SDS_P1;SDS_P2;PMS_P1;PMS_P2;Temp;Humidity;BMP_temperature;BMP_pressure;BME280_temperature;BME280_humidity;BME280_pressure;Samples;Min_cycle;Max_cycle;Signal;HPM_P1;HPM_P2
2022/09/01 09:30:08;;;;;;;7.15;2.30;;;22.70;7.20;;;;;;5125859;27;20367;-71
2022/09/01 09:32:59;;;;;;;2.77;1.60;;;22.70;7.90;;;;;;5090133;27;20449;-73
2022/09/01 09:35:30;;;;;;;2.92;1.52;;;22.80;7.50;;;;;;5082977;28;20386;-73
2022/09/01 09:38:18;;;;;;;3.58;2.58;;;23.00;7.50;;;;;;5082058;28;20392;-73
2022/09/01 09:41:06;;;;;;;5.82;1.80;;;23.20;7.20;;;;;;5067727;28;20397;-73
2022/09/01 09:43:41;;;;;;;3.13;1.40;;;23.40;6.80;;;;;;5068703;28;20392;-72
2022/09/01 09:46:37;;;;;;;3.42;1.50;;;23.30;6.70;;;;;;5068156;28;20403;-73
2022/09/01 09:49:09;;;;;;;6.30;1.80;;;23.30;6.50;;;;;;5065693;28;20461;-72
2022/09/01 09:51:36;;;;;;;2.20;1.38;;;23.30;6.20;;;;;;5067842;28;20464;-72
2022/09/01 09:54:19;;;;;;;4.07;1.70;;;23.30;6.10;;;;;;5066526;28;20385;-73
2022/09/01 09:56:45;;;;;;;3.83;1.70;;;23.40;6.10;;;;;;5067715;28;20881;-72
2022/09/01 09:59:28;;;;;;;5.68;1.70;;;23.40;5.80;;;;;;5067661;28;20918;-72
2022/09/01 10:01:58;;;;;;;6.40;1.70;;;23.40;5.10;;;;;;5067431;28;20438;-72
2022/09/01 10:04:34;;;;;;;3.33;1.90;;;23.40;5.20;;;;;;5067569;28;21005;-73
2022/09/01 10:07:00;;;;;;;2.95;1.80;;;23.40;5.40;;;;;;5067376;28;20388;-73
2022/09/01 10:09:25;;;;;;;5.10;2.20;;;23.40;5.90;;;;;;5067514;28;20408;-72
2022/09/01 10:11:54;;;;;;;2.13;1.50;;;23.30;6.00;;;;;;5066777;28;20396;-72
2022/09/01 10:14:26;;;;;;;6.28;2.40;;;23.30;6.20;;;;;;5069841;28;20388;-72
2022/09/01 10:16:59;;;;;;;4.53;1.90;;;23.30;6.60;;;;;;5067853;28;20739;-74
2022/09/01 10:19:26;;;;;;;4.37;1.80;;;23.50;6.40;;;;;;5067407;28;20450;-73
2022/09/01 10:21:52;;;;;;;6.60;2.00;;;23.70;6.40;;;;;;5066699;28;20451;-73
2022/09/01 10:24:34;;;;;;;6.75;2.00;;;23.80;6.30;;;;;;5066884;28;20381;-72
2022/09/01 10:27:09;;;;;;;2.97;1.60;;;23.90;6.60;;;;;;5067856;28;20842;-72
2022/09/01 10:29:47;;;;;;;4.70;1.90;;;24.00;6.10;;;;;;5067501;28;20776;-72
2022/09/01 10:32:23;;;;;;;4.35;1.95;;;24.10;5.70;;;;;;5067502;28;20380;-71
2022/09/01 10:34:50;;;;;;;2.20;1.77;;;24.20;5.50;;;;;;5068040;28;20942;-72
2022/09/01 10:37:16;;;;;;;6.15;1.80;;;24.20;5.10;;;;;;5069675;28;20435;-73
2022/09/01 10:40:14;;;;;;;5.88;2.22;;;24.30;5.50;;;;;;5066105;28;20382;-72
2022/09/01 10:42:43;;;;;;;3.78;2.00;;;24.40;5.30;;;;;;5056353;28;20439;-75
2022/09/01 10:45:21;;;;;;;2.40;1.73;;;24.50;5.00;;;;;;5057179;28;20385;-72
2022/09/01 10:47:47;;;;;;;2.20;1.55;;;24.50;4.30;;;;;;5056868;28;20797;-70
2022/09/01 10:50:27;;;;;;;3.85;1.80;;;24.40;4.20;;;;;;5055208;28;20374;-73
2022/09/01 10:52:55;;;;;;;5.38;2.13;;;24.30;5.10;;;;;;5054331;28;20929;-72
2022/09/01 10:55:36;;;;;;;5.57;2.10;;;24.50;5.50;;;;;;5054743;28;20382;-73
2022/09/01 10:58:29;;;;;;;5.63;1.83;;;24.50;4.80;;;;;;5055103;28;20439;-73
2022/09/01 11:00:55;;;;;;;2.40;1.50;;;24.70;4.50;;;;;;5055450;28;20390;-72
2022/09/01 11:03:20;;;;;;;5.35;1.70;;;24.60;4.50;;;;;;5054360;28;20866;-73
2022/09/01 11:05:52;;;;;;;3.50;1.90;;;24.60;4.80;;;;;;5054672;28;20470;-74
2022/09/01 11:08:43;;;;;;;3.33;2.20;;;24.60;4.50;;;;;;5054749;28;20886;-72
2022/09/01 11:11:27;;;;;;;4.05;2.17;;;24.60;4.80;;;;;;5055590;28;20927;-72
2022/09/01 11:14:00;;;;;;;7.13;2.40;;;24.70;5.20;;;;;;5056832;28;20428;-73
2022/09/01 11:16:36;;;;;;;4.25;1.83;;;24.80;4.70;;;;;;5055978;28;20382;-73
2022/09/01 11:19:29;;;;;;;4.00;1.97;;;25.10;4.50;;;;;;5057981;28;20735;-72
2022/09/01 11:22:15;;;;;;;6.47;1.85;;;25.40;3.70;;;;;;5057008;28;20392;-72
2022/09/01 11:24:40;;;;;;;4.97;2.10;;;25.60;2.30;;;;;;5056167;28;20378;-72
2022/09/01 11:27:09;;;;;;;8.20;1.90;;;25.30;3.30;;;;;;5054434;28;20896;-73
2022/09/01 11:30:14;;;;;;;4.72;2.13;;;25.20;4.00;;;;;;5054652;28;20409;-73
2022/09/01 11:32:41;;;;;;;4.82;2.50;;;25.50;4.10;;;;;;5032824;28;20815;-73
2022/09/01 11:35:20;;;;;;;1.83;1.63;;;25.70;3.10;;;;;;5051093;28;20416;-73
2022/09/01 11:37:51;;;;;;;7.15;2.40;;;25.70;3.00;;;;;;5054146;28;20922;-72
2022/09/01 11:40:26;;;;;;;4.57;2.63;;;25.70;3.20;;;;;;5042897;28;20455;-73
2022/09/01 11:42:53;;;;;;;3.60;1.77;;;25.70;3.20;;;;;;5053222;28;20393;-73
2022/09/01 11:45:23;;;;;;;2.80;1.60;;;25.60;3.00;;;;;;5053570;28;20457;-71
2022/09/01 11:47:54;;;;;;;6.50;1.63;;;25.50;3.30;;;;;;5046334;28;20402;-73
2022/09/01 11:50:22;;;;;;;3.50;1.70;;;25.80;2.70;;;;;;5047353;28;20397;-73
2022/09/01 11:52:59;;;;;;;4.20;2.47;;;26.20;2.80;;;;;;5053329;28;20829;-73
2022/09/01 11:55:34;;;;;;;4.25;2.20;;;26.50;2.90;;;;;;5079139;28;20741;-72
2022/09/01 11:58:00;;;;;;;6.80;2.07;;;26.60;1.40;;;;;;5033160;28;20760;-72
2022/09/01 12:00:32;;;;;;;3.10;2.08;;;26.50;2.50;;;;;;5039470;28;20446;-72
2022/09/01 12:02:58;;;;;;;4.07;1.90;;;26.70;1.70;;;;;;5052193;28;20403;-71
2022/09/01 12:05:28;;;;;;;3.90;2.33;;;27.00;1.80;;;;;;5053691;28;20386;-72
2022/09/01 12:07:54;;;;;;;2.05;1.85;;;27.30;1.10;;;;;;5053734;28;20382;-71
2022/09/01 12:10:37;;;;;;;4.30;2.30;;;27.30;1.00;;;;;;5055116;28;20378;-71
2022/09/01 12:13:10;;;;;;;3.28;1.90;;;27.50;1.10;;;;;;5060319;28;20405;-70
2022/09/01 12:15:41;;;;;;;2.72;2.10;;;27.60;1.00;;;;;;5054391;28;20389;-73
2022/09/01 12:18:18;;;;;;;2.28;1.60;;;27.80;1.00;;;;;;5053948;28;20436;-73
2022/09/01 12:20:46;;;;;;;4.70;2.00;;;28.20;1.00;;;;;;5053377;28;20405;-72
2022/09/01 12:23:19;;;;;;;4.30;2.00;;;28.10;1.00;;;;;;5051537;28;20386;-72
2022/09/01 12:25:45;;;;;;;3.80;1.98;;;28.40;1.00;;;;;;5051533;28;20381;-72
2022/09/01 12:28:11;;;;;;;4.72;2.00;;;28.30;1.00;;;;;;5051494;28;20406;-72
2022/09/01 12:30:40;;;;;;;4.95;2.28;;;28.30;1.00;;;;;;5051680;28;20392;-74
2022/09/01 12:33:10;;;;;;;4.15;1.95;;;28.30;1.00;;;;;;5051917;28;20699;-72
2022/09/01 12:35:35;;;;;;;5.40;2.23;;;28.30;1.00;;;;;;5051875;28;20401;-73
2022/09/01 12:38:19;;;;;;;4.55;1.75;;;28.40;1.00;;;;;;5051515;28;20634;-73
2022/09/01 12:40:47;;;;;;;3.58;2.30;;;28.60;1.00;;;;;;5052091;28;20384;-73
2022/09/01 12:43:28;;;;;;;3.70;1.77;;;28.80;1.00;;;;;;5050834;28;20903;-73
2022/09/01 12:45:54;;;;;;;3.17;1.70;;;29.00;1.00;;;;;;5052264;28;20428;-73
2022/09/01 12:48:24;;;;;;;2.20;2.00;;;29.10;1.00;;;;;;5054332;28;20385;-73
2022/09/01 12:50:51;;;;;;;3.97;2.20;;;29.40;1.00;;;;;;5053909;28;20917;-73
2022/09/01 12:53:19;;;;;;;2.30;2.10;;;29.40;1.00;;;;;;5052621;28;20396;-73
2022/09/01 12:56:02;;;;;;;3.30;2.00;;;29.20;1.00;;;;;;5052064;28;20385;-73
2022/09/01 12:58:29;;;;;;;1.90;1.70;;;29.30;1.00;;;;;;5050906;28;20405;-73
2022/09/01 13:01:00;;;;;;;2.47;1.80;;;29.50;1.00;;;;;;5052861;28;20465;-73
2022/09/01 13:03:28;;;;;;;2.58;1.80;;;29.40;1.00;;;;;;5050911;28;20431;-73
2022/09/01 13:05:57;;;;;;;4.03;2.30;;;29.30;1.00;;;;;;5052417;28;20793;-73
2022/09/01 13:08:25;;;;;;;2.13;1.92;;;29.30;1.00;;;;;;5052671;28;20389;-73
2022/09/01 13:10:59;;;;;;;2.40;2.13;;;29.30;1.00;;;;;;5054201;28;20950;-72
2022/09/01 13:13:26;;;;;;;6.97;2.55;;;29.50;1.00;;;;;;5055279;28;20389;-73
2022/09/01 13:15:54;;;;;;;4.75;2.33;;;29.30;1.00;;;;;;5054423;28;20385;-72
2022/09/01 13:18:21;;;;;;;4.07;2.03;;;29.30;1.00;;;;;;5055091;28;20412;-73
2022/09/01 13:20:48;;;;;;;4.47;2.40;;;29.30;1.00;;;;;;5054263;28;20393;-73
2022/09/01 13:23:13;;;;;;;2.80;2.38;;;29.20;1.00;;;;;;5055007;28;20781;-73
2022/09/01 13:25:43;;;;;;;4.20;2.50;;;29.20;1.00;;;;;;5053621;28;20438;-73
2022/09/01 13:28:10;;;;;;;6.00;2.38;;;29.10;1.00;;;;;;5052466;28;20389;-74
2022/09/01 13:30:36;;;;;;;3.63;2.20;;;29.10;1.00;;;;;;5052768;28;20385;-73
2022/09/01 13:33:02;;;;;;;2.90;2.60;;;29.30;1.00;;;;;;5051828;28;20385;-73
2022/09/01 13:35:28;;;;;;;8.13;2.60;;;29.70;1.00;;;;;;5053955;28;20381;-73
2022/09/01 13:37:54;;;;;;;5.70;2.28;;;30.50;1.00;;;;;;5055653;28;20386;-73
2022/09/01 13:40:21;;;;;;;2.90;2.10;;;31.10;1.00;;;;;;5053639;28;20381;-72
2022/09/01 13:42:51;;;;;;;2.30;2.00;;;31.70;1.00;;;;;;5055582;28;20381;-72
2022/09/01 13:45:19;;;;;;;1.80;1.70;;;32.40;1.00;;;;;;5054630;28;20432;-72
2022/09/01 13:47:46;;;;;;;6.15;2.10;;;32.60;1.00;;;;;;5055560;28;20373;-73
2022/09/01 13:50:16;;;;;;;3.80;2.20;;;32.10;1.00;;;;;;5054613;28;20861;-73
2022/09/01 13:52:48;;;;;;;2.40;2.00;;;31.20;1.00;;;;;;5055355;28;20381;-74
2022/09/01 13:55:18;;;;;;;4.38;2.80;;;30.10;1.00;;;;;;5055959;28;20792;-72
2022/09/01 13:57:43;;;;;;;6.85;2.80;;;29.30;1.00;;;;;;5056242;28;20938;-72
2022/09/01 14:00:16;;;;;;;5.05;2.30;;;28.70;1.00;;;;;;5057763;28;20479;-75
2022/09/01 14:02:48;;;;;;;4.90;2.45;;;28.10;1.00;;;;;;5056887;28;20390;-73
2022/09/01 14:05:17;;;;;;;3.53;2.55;;;27.80;1.00;;;;;;5055261;28;20384;-73
2022/09/01 14:07:42;;;;;;;4.13;2.50;;;27.50;1.00;;;;;;5054472;28;20981;-73
2022/09/01 14:10:08;;;;;;;4.73;3.03;;;27.20;1.00;;;;;;5051874;28;20413;-73
2022/09/01 14:12:34;;;;;;;3.28;2.47;;;27.10;1.10;;;;;;5050748;28;20468;-72
2022/09/01 14:14:59;;;;;;;5.78;2.88;;;27.00;2.40;;;;;;5051644;28;20381;-72
2022/09/01 14:17:25;;;;;;;4.63;2.90;;;27.10;1.60;;;;;;5054394;28;20402;-72
2022/09/01 14:19:51;;;;;;;3.10;2.83;;;27.40;1.10;;;;;;5054746;28;20500;-74
2022/09/01 14:22:17;;;;;;;10.95;3.20;;;27.60;1.00;;;;;;5054027;28;20464;-74
2022/09/01 14:24:42;;;;;;;4.90;2.60;;;27.70;1.00;;;;;;5054161;28;20440;-73
2022/09/01 14:27:08;;;;;;;2.90;2.07;;;27.70;1.00;;;;;;5053775;28;20388;-74
2022/09/01 14:29:35;;;;;;;4.30;2.10;;;27.90;1.00;;;;;;5054241;28;20416;-73
2022/09/01 14:32:01;;;;;;;5.28;2.30;;;29.00;1.00;;;;;;5056581;28;20429;-73
2022/09/01 14:34:27;;;;;;;2.70;2.20;;;29.50;1.00;;;;;;5055003;28;20416;-73
2022/09/01 14:36:55;;;;;;;4.25;2.22;;;29.30;1.00;;;;;;5053624;28;20444;-73
2022/09/01 14:39:21;;;;;;;8.73;3.40;;;29.80;1.00;;;;;;5054090;28;20417;-73
2022/09/01 14:41:46;;;;;;;4.10;2.30;;;30.10;1.00;;;;;;5053783;28;20450;-73
2022/09/01 14:44:12;;;;;;;2.70;2.33;;;29.90;1.00;;;;;;5053718;28;20898;-73
2022/09/01 14:46:38;;;;;;;3.00;2.80;;;30.10;1.00;;;;;;5053792;28;20466;-73
2022/09/01 14:49:04;;;;;;;4.90;3.40;;;29.90;1.00;;;;;;5054144;28;20412;-72
2022/09/01 14:51:31;;;;;;;4.13;2.83;;;30.30;1.00;;;;;;5054079;28;20389;-73
2022/09/01 14:53:57;;;;;;;4.28;2.25;;;30.10;1.00;;;;;;5053191;28;20377;-72
2022/09/01 14:56:23;;;;;;;3.58;2.30;;;29.50;1.00;;;;;;5053739;28;20389;-73
2022/09/01 14:58:51;;;;;;;3.25;2.35;;;28.90;1.00;;;;;;5053270;28;20420;-72
2022/09/01 15:01:19;;;;;;;6.55;2.30;;;29.10;1.00;;;;;;5053506;28;20436;-73
2022/09/01 15:03:46;;;;;;;7.40;2.05;;;30.20;1.00;;;;;;5053577;28;20813;-73
2022/09/01 15:06:14;;;;;;;2.40;2.00;;;30.80;1.00;;;;;;5053626;28;20881;-73
2022/09/01 15:08:41;;;;;;;7.67;2.80;;;30.70;1.00;;;;;;5053235;28;20746;-73
2022/09/01 15:11:09;;;;;;;4.50;2.35;;;30.50;1.00;;;;;;5052920;28;20515;-72
2022/09/01 15:13:34;;;;;;;3.55;2.70;;;29.90;1.00;;;;;;5053035;28;20460;-74
2022/09/01 15:16:00;;;;;;;2.77;2.33;;;29.60;1.00;;;;;;5053166;28;20413;-73
2022/09/01 15:18:26;;;;;;;4.78;2.03;;;29.20;1.00;;;;;;5052784;28;20405;-73
2022/09/01 15:20:52;;;;;;;4.00;2.20;;;28.90;1.00;;;;;;5052459;28;20382;-73
2022/09/01 15:23:21;;;;;;;2.85;2.20;;;28.70;1.00;;;;;;5052884;28;20392;-73
2022/09/01 15:25:49;;;;;;;5.88;2.00;;;28.50;1.00;;;;;;5051395;28;20405;-73
2022/09/01 15:28:14;;;;;;;2.67;2.20;;;28.20;1.00;;;;;;5052500;28;20436;-72
2022/09/01 15:30:40;;;;;;;3.73;2.57;;;28.00;1.00;;;;;;5053127;28;20858;-72
2022/09/01 15:33:08;;;;;;;3.88;2.28;;;27.90;1.00;;;;;;5052680;28;20398;-72
2022/09/01 15:35:34;;;;;;;3.72;2.50;;;27.90;1.00;;;;;;5053172;28;20401;-72
2022/09/01 15:38:00;;;;;;;5.10;2.50;;;27.90;1.00;;;;;;5053359;28;20392;-72
2022/09/01 15:40:27;;;;;;;7.40;2.80;;;27.80;1.00;;;;;;5054183;28;20920;-72
2022/09/01 15:42:54;;;;;;;4.20;2.58;;;27.80;1.00;;;;;;5055170;28;20381;-73
2022/09/01 15:45:25;;;;;;;4.78;2.20;;;27.70;1.00;;;;;;5051564;28;20385;-72
2022/09/01 15:47:51;;;;;;;4.80;1.80;;;27.70;1.00;;;;;;5052346;28;20397;-73
2022/09/01 15:50:20;;;;;;;3.17;2.30;;;27.50;1.00;;;;;;5052890;28;20465;-71
2022/09/01 15:53:07;;;;;;;5.03;2.20;;;27.50;1.00;;;;;;5052454;28;20931;-73
2022/09/01 15:55:44;;;;;;;7.00;2.45;;;27.60;1.00;;;;;;5052311;28;20381;-73
2022/09/01 15:58:12;;;;;;;6.10;2.13;;;27.70;1.00;;;;;;5051748;28;20444;-73
2022/09/01 16:00:38;;;;;;;3.97;2.30;;;27.80;1.00;;;;;;5050975;28;20381;-72
2022/09/01 16:03:03;;;;;;;2.60;2.10;;;28.20;1.00;;;;;;5051748;28;20385;-73
2022/09/01 16:05:31;;;;;;;4.20;1.90;;;28.40;1.00;;;;;;5051550;28;20392;-72
2022/09/01 16:07:57;;;;;;;5.07;2.40;;;28.80;1.00;;;;;;5052222;28;20784;-72
2022/09/01 16:10:23;;;;;;;3.92;2.10;;;29.60;1.00;;;;;;5052293;28;20421;-73
2022/09/01 16:12:51;;;;;;;4.17;2.40;;;30.60;1.00;;;;;;5052225;28;20389;-73
2022/09/01 16:15:21;;;;;;;5.32;2.10;;;31.40;1.00;;;;;;5051272;28;20472;-71
2022/09/01 16:17:57;;;;;;;7.00;2.20;;;31.80;1.00;;;;;;5051960;28;20731;-72
2022/09/01 16:20:27;;;;;;;3.92;1.90;;;32.30;1.00;;;;;;5052034;28;20382;-73
2022/09/01 16:23:04;;;;;;;6.07;1.83;;;32.50;1.00;;;;;;5051422;28;20470;-71
2022/09/01 16:25:32;;;;;;;4.00;1.88;;;32.70;1.00;;;;;;5051512;28;20377;-71
2022/09/01 16:28:05;;;;;;;4.43;2.22;;;32.90;1.00;;;;;;5051228;28;20400;-72
2022/09/01 16:30:32;;;;;;;4.13;1.90;;;33.20;1.00;;;;;;5051086;28;20417;-72
2022/09/01 16:33:01;;;;;;;3.80;2.00;;;33.30;1.00;;;;;;5050924;28;20389;-72
2022/09/01 16:35:44;;;;;;;5.82;2.15;;;33.00;1.00;;;;;;5051458;28;20399;-72
2022/09/01 16:38:28;;;;;;;4.00;2.10;;;31.70;1.00;;;;;;5050679;28;20405;-72
2022/09/01 16:41:24;;;;;;;2.20;2.00;;;30.60;1.00;;;;;;5051015;28;20373;-72
2022/09/01 16:44:11;;;;;;;2.88;2.45;;;29.40;1.00;;;;;;5031596;28;20384;-72
2022/09/01 16:46:59;;;;;;;3.83;2.10;;;28.50;1.00;;;;;;5050593;28;20870;-71
2022/09/01 16:49:32;;;;;;;3.10;2.75;;;27.90;1.00;;;;;;5051135;28;20933;-72
2022/09/01 16:52:21;;;;;;;7.90;2.70;;;27.30;1.00;;;;;;5051192;28;20879;-74
2022/09/01 16:54:52;;;;;;;7.57;3.60;;;26.80;1.30;;;;;;5048116;28;20940;-70
2022/09/01 16:57:41;;;;;;;4.63;2.70;;;26.50;1.90;;;;;;5051796;28;20381;-71
2022/09/01 17:00:12;;;;;;;4.65;2.83;;;26.40;1.80;;;;;;5055133;28;20431;-71
2022/09/01 17:03:06;;;;;;;3.80;2.00;;;26.30;2.00;;;;;;5051794;28;20396;-71
2022/09/01 17:05:53;;;;;;;3.45;2.03;;;26.30;2.20;;;;;;5055747;28;20377;-72
2022/09/01 17:08:31;;;;;;;4.20;2.30;;;26.20;2.00;;;;;;5054902;28;20384;-72
2022/09/01 17:11:09;;;;;;;4.65;2.80;;;26.00;2.20;;;;;;5053218;28;20388;-72
2022/09/01 17:13:42;;;;;;;6.30;2.30;;;25.80;2.30;;;;;;5054447;28;20431;-71
2022/09/01 17:16:21;;;;;;;9.90;7.18;;;25.60;2.60;;;;;;5053669;28;20750;-71
2022/09/01 17:18:50;;;;;;;3.53;2.10;;;25.60;2.50;;;;;;5053740;28;20413;-71
2022/09/01 17:21:25;;;;;;;14.43;6.60;;;25.50;2.50;;;;;;5053742;28;20388;-71
2022/09/01 17:24:27;;;;;;;5.97;2.42;;;25.40;2.90;;;;;;5053619;28;20389;-72
2022/09/01 17:27:03;;;;;;;6.07;2.20;;;25.20;3.30;;;;;;5031815;28;20482;-73
2022/09/01 17:29:43;;;;;;;4.10;1.90;;;25.00;3.10;;;;;;5050894;28;20397;-73
2022/09/01 17:32:22;;;;;;;5.20;1.70;;;25.00;2.80;;;;;;5050538;28;20461;-72
2022/09/01 17:35:26;;;;;;;4.22;1.90;;;24.90;3.00;;;;;;5048866;28;20900;-72
2022/09/01 17:38:05;;;;;;;3.78;2.33;;;24.70;3.30;;;;;;5050771;28;20412;-70
2022/09/01 17:41:04;;;;;;;5.55;2.00;;;24.60;3.50;;;;;;5050458;28;20810;-71
2022/09/01 17:43:33;;;;;;;8.63;2.33;;;24.50;3.60;;;;;;5050615;28;20385;-71
2022/09/01 17:46:16;;;;;;;2.53;1.70;;;24.30;3.80;;;;;;5048968;28;20385;-71
2022/09/01 17:48:50;;;;;;;4.10;1.98;;;24.20;3.80;;;;;;5050166;28;20531;-71
2022/09/01 17:51:33;;;;;;;6.05;2.05;;;24.20;3.90;;;;;;5053673;28;20476;-72
2022/09/01 17:54:07;;;;;;;3.75;1.95;;;24.00;4.20;;;;;;5054444;28;20888;-72
2022/09/01 17:56:42;;;;;;;6.35;1.80;;;24.00;4.40;;;;;;5054214;28;20392;-72
2022/09/01 17:59:27;;;;;;;3.75;2.00;;;23.70;4.70;;;;;;5054067;28;20405;-72
2022/09/01 18:02:24;;;;;;;6.32;2.10;;;23.70;4.80;;;;;;5052800;28;20487;-72
2022/09/01 18:05:14;;;;;;;4.75;1.90;;;23.50;5.20;;;;;;5054866;28;20401;-72
2022/09/01 18:08:03;;;;;;;5.45;3.10;;;23.50;5.50;;;;;;5053200;28;20488;-72
2022/09/01 18:10:46;;;;;;;5.05;2.20;;;23.30;5.60;;;;;;5054078;28;20374;-73
2022/09/01 18:13:51;;;;;;;10.63;3.53;;;23.30;5.60;;;;;;5053894;28;20699;-73
2022/09/01 18:16:54;;;;;;;6.77;2.30;;;23.10;5.80;;;;;;5042641;28;20393;-72
2022/09/01 18:19:23;;;;;;;5.88;2.10;;;23.00;6.20;;;;;;5031782;28;20411;-71
2022/09/01 18:21:53;;;;;;;5.10;2.10;;;22.90;6.80;;;;;;5049392;28;20404;-71
2022/09/01 18:24:32;;;;;;;4.47;2.00;;;22.80;7.00;;;;;;5054090;28;20478;-72
2022/09/01 18:26:57;;;;;;;5.20;2.00;;;22.70;7.20;;;;;;5053938;28;20707;-73
2022/09/01 18:29:28;;;;;;;4.90;2.50;;;22.60;7.30;;;;;;5054017;28;20408;-73
2022/09/01 18:32:30;;;;;;;5.70;2.20;;;22.50;7.80;;;;;;5053326;28;20373;-73
2022/09/01 18:35:27;;;;;;;6.27;2.60;;;22.40;8.50;;;;;;5053813;28;20459;-73
2022/09/01 18:37:59;;;;;;;3.85;2.22;;;22.30;8.50;;;;;;5053764;28;20377;-73
2022/09/01 18:40:32;;;;;;;5.85;2.20;;;22.30;9.40;;;;;;5053723;28;20378;-71
2022/09/01 18:43:31;;;;;;;5.65;2.42;;;22.20;9.00;;;;;;5053559;28;20374;-72
2022/09/01 18:46:09;;;;;;;3.60;1.90;;;22.10;9.30;;;;;;5054047;28;20381;-71
2022/09/01 18:49:08;;;;;;;5.35;2.80;;;22.10;9.40;;;;;;5054189;28;20389;-72
2022/09/01 18:51:43;;;;;;;6.50;2.70;;;21.90;9.90;;;;;;5054170;28;20734;-72
2022/09/01 18:54:21;;;;;;;4.35;2.08;;;21.80;9.80;;;;;;5053734;28;20520;-73
2022/09/01 18:57:04;;;;;;;6.72;2.58;;;21.80;10.30;;;;;;5052754;28;20393;-71
2022/09/01 19:00:14;;;;;;;4.65;2.60;;;21.80;10.50;;;;;;5054545;28;20402;-73
2022/09/01 19:03:07;;;;;;;9.70;2.67;;;21.70;10.30;;;;;;5054293;28;20377;-73
2022/09/01 19:05:48;;;;;;;7.27;2.70;;;21.60;10.50;;;;;;5054230;28;20481;-72
2022/09/01 19:08:26;;;;;;;5.63;2.40;;;21.60;10.80;;;;;;5053550;28;20381;-72
2022/09/01 19:11:07;;;;;;;8.80;3.00;;;21.60;11.10;;;;;;5053216;28;20789;-71
2022/09/01 19:14:08;;;;;;;7.50;2.70;;;21.40;11.20;;;;;;5052196;28;20918;-71
2022/09/01 19:16:45;;;;;;;5.07;2.47;;;21.30;11.60;;;;;;5053093;28;20397;-73
2022/09/01 19:19:42;;;;;;;3.88;2.30;;;21.20;11.80;;;;;;5052869;28;20404;-73
2022/09/01 19:22:16;;;;;;;5.70;2.47;;;21.20;11.80;;;;;;5050998;28;20394;-71
2022/09/01 19:25:32;;;;;;;4.88;2.50;;;21.20;12.00;;;;;;5056837;28;20385;-71
2022/09/01 19:27:45;;;;;;;9.13;3.20;;;21.10;12.10;;;;;;5054185;28;20385;-71
2022/09/01 19:30:11;;;;;;;5.72;2.30;;;21.00;12.20;;;;;;5052863;28;20754;-72
2022/09/01 19:32:37;;;;;;;5.60;2.30;;;21.00;12.30;;;;;;5053021;28;20457;-72
2022/09/01 19:35:21;;;;;;;5.50;2.43;;;21.10;12.30;;;;;;5052722;28;20381;-71
2022/09/01 19:37:49;;;;;;;5.40;2.70;;;21.00;12.30;;;;;;5051293;28;20397;-72
2022/09/01 19:40:26;;;;;;;7.53;2.20;;;20.90;12.40;;;;;;5052306;28;20481;-71
2022/09/01 19:42:58;;;;;;;4.22;2.10;;;20.90;12.50;;;;;;5052023;28;20947;-72
2022/09/01 19:45:45;;;;;;;5.95;4.00;;;20.90;12.70;;;;;;5052317;28;20381;-72
2022/09/01 19:48:14;;;;;;;6.88;2.47;;;20.90;12.80;;;;;;5052548;28;20500;-71
2022/09/01 19:50:46;;;;;;;7.47;2.80;;;20.80;12.70;;;;;;5052712;28;20384;-72
2022/09/01 19:53:37;;;;;;;6.07;2.13;;;20.80;12.90;;;;;;5052420;28;20382;-72
2022/09/01 19:56:23;;;;;;;12.80;2.65;;;20.70;13.20;;;;;;5053312;28;20385;-72
2022/09/01 19:59:14;;;;;;;7.97;2.60;;;20.60;13.30;;;;;;5052697;28;20409;-73
2022/09/01 20:01:56;;;;;;;8.43;2.70;;;20.50;13.60;;;;;;5052446;28;20454;-73
2022/09/01 20:04:48;;;;;;;6.60;2.22;;;20.50;13.70;;;;;;5052451;28;20380;-72
2022/09/01 20:07:51;;;;;;;8.43;2.80;;;20.50;13.30;;;;;;5052489;28;20513;-73
2022/09/01 20:10:34;;;;;;;6.15;2.90;;;20.50;13.60;;;;;;5050872;28;20381;-71
2022/09/01 20:13:28;;;;;;;8.18;4.20;;;20.40;13.90;;;;;;5051087;28;20385;-71
2022/09/01 20:16:09;;;;;;;4.82;2.28;;;20.40;14.10;;;;;;5051897;28;20385;-72
2022/09/01 20:18:42;;;;;;;10.43;3.95;;;20.50;13.50;;;;;;5052017;28;20397;-73
2022/09/01 20:21:09;;;;;;;7.10;3.08;;;20.40;14.10;;;;;;5051894;28;21033;-72
2022/09/01 20:23:43;;;;;;;7.22;2.97;;;20.10;14.60;;;;;;5051972;28;20450;-73
2022/09/01 20:26:21;;;;;;;9.35;3.70;;;20.10;14.30;;;;;;5051682;28;20793;-73
2022/09/01 20:29:04;;;;;;;7.00;3.30;;;20.10;14.30;;;;;;5052039;28;20409;-71
2022/09/01 20:31:35;;;;;;;8.57;4.43;;;20.10;14.50;;;;;;5052059;28;20386;-72
2022/09/01 20:34:28;;;;;;;6.50;2.95;;;20.10;14.30;;;;;;5051884;28;20384;-72
2022/09/01 20:37:19;;;;;;;9.00;2.80;;;20.10;14.50;;;;;;5051604;28;20392;-71
2022/09/01 20:39:59;;;;;;;13.93;3.20;;;20.10;14.30;;;;;;5051771;28;20448;-73
2022/09/01 20:42:50;;;;;;;4.55;2.20;;;20.10;15.10;;;;;;5051694;28;20394;-76
2022/09/01 20:45:24;;;;;;;4.50;2.22;;;20.10;14.10;;;;;;5050789;28;20438;-73
2022/09/01 20:48:05;;;;;;;8.82;5.97;;;20.10;14.00;;;;;;5048012;28;20421;-73
2022/09/01 20:50:42;;;;;;;7.88;4.70;;;20.00;14.00;;;;;;5051319;28;20475;-74
2022/09/01 20:53:46;;;;;;;5.03;4.30;;;20.00;13.70;;;;;;5055101;28;20461;-73
2022/09/01 20:56:31;;;;;;;5.22;3.15;;;19.90;13.90;;;;;;5026278;28;20884;-73
2022/09/01 20:59:24;;;;;;;5.22;2.95;;;19.90;13.90;;;;;;5047665;28;20417;-74
2022/09/01 21:02:24;;;;;;;10.90;6.38;;;19.80;14.00;;;;;;5050686;28;20398;-73
2022/09/01 21:05:09;;;;;;;7.63;4.05;;;19.80;13.90;;;;;;5050967;28;20442;-74
2022/09/01 21:08:16;;;;;;;8.47;4.50;;;19.80;14.00;;;;;;5051105;28;20793;-72
2022/09/01 21:10:47;;;;;;;7.85;3.30;;;19.70;14.00;;;;;;5043798;28;20877;-72
2022/09/01 21:13:35;;;;;;;13.63;7.35;;;19.60;14.00;;;;;;5051379;28;20802;-73
2022/09/01 21:16:27;;;;;;;8.90;4.00;;;19.50;14.50;;;;;;5051514;28;20386;-74
2022/09/01 21:19:25;;;;;;;5.82;3.83;;;19.40;14.20;;;;;;5051231;28;20400;-74
2022/09/01 21:22:10;;;;;;;6.60;3.10;;;19.50;14.00;;;;;;5051429;28;20754;-73
2022/09/01 21:24:36;;;;;;;4.50;4.00;;;19.40;14.10;;;;;;5051527;28;20754;-72
2022/09/01 21:27:06;;;;;;;9.70;6.70;;;19.30;14.50;;;;;;5051367;28;20464;-72
2022/09/01 21:29:54;;;;;;;15.10;7.57;;;19.40;14.30;;;;;;5051173;28;20429;-71
2022/09/01 21:32:21;;;;;;;4.90;3.10;;;19.30;14.40;;;;;;5051410;28;20413;-71
2022/09/01 21:34:47;;;;;;;9.25;4.38;;;19.30;14.30;;;;;;5051110;28;20923;-69
2022/09/01 21:37:13;;;;;;;5.32;3.72;;;19.20;14.40;;;;;;5051100;28;20385;-71
2022/09/01 21:39:38;;;;;;;7.85;3.13;;;19.20;14.30;;;;;;5051403;28;20402;-71
2022/09/01 21:42:06;;;;;;;5.85;3.40;;;19.40;13.90;;;;;;5052862;28;20916;-71
2022/09/01 21:44:33;;;;;;;5.18;3.50;;;19.30;13.90;;;;;;5051724;28;20386;-70
2022/09/01 21:46:59;;;;;;;6.30;3.63;;;19.30;14.00;;;;;;5051123;28;20866;-71
2022/09/01 21:49:25;;;;;;;3.75;2.92;;;19.30;14.00;;;;;;5050966;28;20949;-72
2022/09/01 21:51:51;;;;;;;4.53;3.10;;;19.20;14.10;;;;;;5050413;28;20492;-71
2022/09/01 21:54:17;;;;;;;4.70;2.60;;;19.20;13.90;;;;;;5050583;28;20432;-71
2022/09/01 21:56:43;;;;;;;6.47;3.30;;;19.30;13.90;;;;;;5050949;28;20417;-72
2022/09/01 21:59:11;;;;;;;4.20;2.90;;;19.20;13.90;;;;;;5051717;28;20424;-71
2022/09/01 22:01:37;;;;;;;5.65;3.40;;;19.10;14.60;;;;;;5051927;28;20416;-71
2022/09/01 22:04:04;;;;;;;7.20;3.05;;;19.20;14.40;;;;;;5051371;28;20389;-72
2022/09/01 22:06:31;;;;;;;3.97;2.83;;;19.10;14.10;;;;;;5050831;28;20392;-71
2022/09/01 22:09:01;;;;;;;3.65;2.50;;;19.10;14.10;;;;;;5050507;28;20487;-70
2022/09/01 22:11:28;;;;;;;4.72;2.35;;;19.20;13.80;;;;;;5050593;28;20913;-71
2022/09/01 22:13:56;;;;;;;5.10;2.30;;;19.30;13.80;;;;;;5050693;28;20484;-74
2022/09/01 22:16:22;;;;;;;3.05;2.75;;;19.20;13.70;;;;;;5050626;28;20483;-70
2022/09/01 22:18:48;;;;;;;5.10;2.60;;;19.20;14.00;;;;;;5050580;28;20504;-72
2022/09/01 22:21:15;;;;;;;4.53;2.40;;;19.30;13.70;;;;;;5050488;28;20492;-71
2022/09/01 22:23:41;;;;;;;4.72;3.28;;;19.30;13.60;;;;;;5058721;28;20408;-72
2022/09/01 22:26:07;;;;;;;10.30;3.20;;;19.30;13.80;;;;;;5059383;28;20476;-73
2022/09/01 22:28:34;;;;;;;8.98;3.40;;;19.30;13.80;;;;;;5058141;28;20397;-72
2022/09/01 22:31:00;;;;;;;9.98;2.75;;;19.40;13.70;;;;;;5051557;28;20429;-71
2022/09/01 22:33:26;;;;;;;5.88;2.70;;;19.30;13.90;;;;;;5050507;28;20428;-71
2022/09/01 22:35:53;;;;;;;5.50;2.87;;;19.30;14.40;;;;;;5050843;28;20916;-73
2022/09/01 22:38:20;;;;;;;4.10;2.40;;;19.30;13.90;;;;;;5053929;28;20440;-71
2022/09/01 22:40:55;;;;;;;6.70;2.42;;;19.20;13.90;;;;;;5054141;28;20489;-70
2022/09/01 22:43:24;;;;;;;5.22;2.33;;;19.20;13.60;;;;;;5053859;28;20878;-71
2022/09/01 22:45:50;;;;;;;6.88;2.45;;;19.10;14.20;;;;;;5053656;28;20398;-73
2022/09/01 22:48:17;;;;;;;6.32;2.50;;;19.20;13.80;;;;;;5053699;28;20433;-70
2022/09/01 22:50:44;;;;;;;5.70;2.20;;;19.10;14.10;;;;;;5053855;28;20744;-71
2022/09/01 22:53:11;;;;;;;4.30;2.25;;;19.10;13.90;;;;;;5053931;28;20444;-72
2022/09/01 22:55:38;;;;;;;5.63;2.70;;;19.10;14.00;;;;;;5054265;28;20462;-70
2022/09/01 22:58:05;;;;;;;3.35;2.40;;;19.10;14.00;;;;;;5053099;28;20454;-71
2022/09/01 23:00:32;;;;;;;8.20;2.20;;;19.20;14.20;;;;;;5053425;28;20404;-70